McGill, Nevada
Current Conditions -  °F | °C
As of 11:53 AM on Thursday 23 Oct 2014 (Local Time) from KELY Reporting Station
Clear Clear  
Wind Chill: 22°   Ceiling: Unl
Heat Index: 22°   Visibility: 10mi
Dew Point: -6°   Wind: 17mph
Humidity: 16%   Direction: 170°S
Pressure: 30.19"   Gusts: 24mph
Location:  39.4°N, 114.78°W
Report Text: KELY 231853Z AUTO 17015G21KT 10SM CLR 22/M06 A3019 RMK AO2 SLP153 T02171056
Loading
Personal Weather Stations






























Interactive Weather Map
Tropical Storm Tracking
New forecast layout! Learn more

10-Day Weather Forecast

Advertisements
Track Severe Weather on mobile